Wednesday, October 17, 2018, 12:25 PM EDT
Back to Local

KPVC, Provincetown, Provincetown Municipal Airport

Location: Provincetown, MA, United States Lat: 42.067
Local Time: 12:25 PM EDT (16:25 GMT) Lon: -70.217
Time Zone: US/Eastern Elev: 6 ft

Show me the last for .
Show Decoded

2018-10-17 11:56 METAR KPVC 171556Z AUTO 24016KT 10SM CLR 14/05 A2985 RMK AO2 SLP106 T01390050 =
2018-10-17 10:56 METAR KPVC 171456Z AUTO 25014KT 10SM CLR 13/04 A2987 RMK AO2 SLP114 T01330044
                 58016 =
2018-10-17 09:56 METAR KPVC 171356Z AUTO 24020G23KT 10SM CLR 12/04 A2989 RMK AO2 SLP122 T01170044
                 =
2018-10-17 08:56 METAR KPVC 171256Z AUTO 23017KT 10SM CLR 12/05 A2990 RMK AO2 SLP124 T01170050 =
2018-10-17 07:56 METAR KPVC 171156Z AUTO 23013KT 10SM CLR 11/03 A2992 RMK AO2 SLP130 T01060033
                 10106 20072 58018 =
2018-10-17 06:56 METAR KPVC 171056Z AUTO 22005KT 10SM CLR 08/04 A2993 RMK AO2 SLP136 T00780039 =
2018-10-17 05:56 METAR KPVC 170956Z AUTO 25009KT 10SM CLR 09/04 A2996 RMK AO2 SLP143 T00890044 =
2018-10-17 04:56 METAR KPVC 170856Z AUTO 25009KT 10SM CLR 09/04 A2997 RMK AO2 SLP148 T00890044
                 56010 =
2018-10-17 03:56 METAR KPVC 170756Z AUTO 25009KT 10SM CLR 09/04 A2998 RMK AO2 SLP151 T00940039 =
2018-10-17 02:56 METAR KPVC 170656Z AUTO 26010KT 10SM CLR 10/04 A2998 RMK AO2 SLP153 T01000039 =
2018-10-17 01:56 METAR KPVC 170556Z AUTO 26009KT 10SM CLR 11/03 A3000 RMK AO2 SLP158 T01060033
                 10117 20100 58008 =
2018-10-16 23:56 METAR KPVC 170356Z AUTO 27016G21KT 10SM CLR 11/04 A3002 RMK AO2 SLP166 T01060039
                 =
2018-10-16 22:56 METAR KPVC 170256Z AUTO 26014KT 10SM CLR 11/04 A3002 RMK AO2 SLP167 T01060044
                 51005 =
2018-10-16 21:56 METAR KPVC 170156Z AUTO 26009KT 10SM CLR 11/03 A3002 RMK AO2 SLP165 T01110033 =
2018-10-16 20:56 METAR KPVC 170056Z AUTO 26015KT 10SM CLR 12/03 A3002 RMK AO2 SLP164 T01170028 =
2018-10-16 19:56 METAR KPVC 162356Z AUTO 26012KT 10SM CLR 12/03 A3001 RMK AO2 SLP161 T01170028
                 10144 20111 53006 =
2018-10-16 18:56 METAR KPVC 162256Z AUTO 24013KT 10SM CLR 12/03 A3000 RMK AO2 SLP158 T01170028 =
2018-10-16 17:56 METAR KPVC 162156Z AUTO 23012G17KT 10SM CLR 12/03 A2999 RMK AO2 SLP155 T01170028
                 =
2018-10-16 16:56 METAR KPVC 162056Z AUTO 24011KT 10SM CLR 13/02 A2999 RMK AO2 SLP155 T01280017
                 57003 =
2018-10-16 15:56 METAR KPVC 161956Z AUTO 24011KT 10SM CLR 14/02 A2999 RMK AO2 SLPNO T01390017 =
2018-10-16 14:56 METAR KPVC 161856Z AUTO 27010KT 10SM CLR 14/02 A2999 RMK AO2 SLPNO T01390017 =
2018-10-16 13:56 METAR KPVC 161756Z AUTO 25013KT 10SM CLR 14/02 A3000 RMK AO2 SLPNO T01390017
                 10139 20089 58014 =
2018-10-16 12:56 METAR KPVC 161656Z AUTO 28010KT 10SM CLR 13/01 A3001 RMK AO2 SLPNO T01280011 =

Support USWX by starting your Amazon purchase here.